sensor_id;sensor_type;location;lat;lon;timestamp;temperature;humidity
2623;DHT22;1321;48.690;9.022;2022-10-16T00:01:05;16.50;1.00
2623;DHT22;1321;48.690;9.022;2022-10-16T00:03:34;16.40;1.00
2623;DHT22;1321;48.690;9.022;2022-10-16T00:06:02;16.40;1.00
2623;DHT22;1321;48.690;9.022;2022-10-16T00:08:30;16.40;1.00
2623;DHT22;1321;48.690;9.022;2022-10-16T00:11:00;16.40;1.00
2623;DHT22;1321;48.690;9.022;2022-10-16T00:13:28;16.40;1.00
2623;DHT22;1321;48.690;9.022;2022-10-16T00:15:59;16.40;1.00
2623;DHT22;1321;48.690;9.022;2022-10-16T00:18:27;16.40;1.00
2623;DHT22;1321;48.690;9.022;2022-10-16T00:21:00;16.50;1.00
2623;DHT22;1321;48.690;9.022;2022-10-16T00:23:29;16.40;1.00
2623;DHT22;1321;48.690;9.022;2022-10-16T00:25:58;16.40;1.00
2623;DHT22;1321;48.690;9.022;2022-10-16T00:28:26;16.30;1.00
2623;DHT22;1321;48.690;9.022;2022-10-16T00:30:55;16.40;1.00
2623;DHT22;1321;48.690;9.022;2022-10-16T00:33:25;16.40;1.00
2623;DHT22;1321;48.690;9.022;2022-10-16T00:35:53;16.40;1.00
2623;DHT22;1321;48.690;9.022;2022-10-16T00:38:21;16.40;1.00
2623;DHT22;1321;48.690;9.022;2022-10-16T00:40:49;16.40;1.00
2623;DHT22;1321;48.690;9.022;2022-10-16T00:43:37;16.40;1.00
2623;DHT22;1321;48.690;9.022;2022-10-16T00:46:11;16.40;1.00
2623;DHT22;1321;48.690;9.022;2022-10-16T00:48:45;16.30;1.00
2623;DHT22;1321;48.690;9.022;2022-10-16T00:51:14;16.30;1.00
2623;DHT22;1321;48.690;9.022;2022-10-16T00:53:43;16.20;1.00
2623;DHT22;1321;48.690;9.022;2022-10-16T00:56:11;16.30;1.00
2623;DHT22;1321;48.690;9.022;2022-10-16T00:58:39;16.40;1.00
2623;DHT22;1321;48.690;9.022;2022-10-16T01:01:08;16.40;1.00
2623;DHT22;1321;48.690;9.022;2022-10-16T01:03:36;16.40;1.00
2623;DHT22;1321;48.690;9.022;2022-10-16T01:06:23;16.40;1.00
2623;DHT22;1321;48.690;9.022;2022-10-16T01:09:11;16.40;1.00
2623;DHT22;1321;48.690;9.022;2022-10-16T01:11:45;16.30;1.00
2623;DHT22;1321;48.690;9.022;2022-10-16T01:14:21;16.30;1.00
2623;DHT22;1321;48.690;9.022;2022-10-16T01:16:55;16.30;1.00
2623;DHT22;1321;48.690;9.022;2022-10-16T01:19:41;16.30;1.00
2623;DHT22;1321;48.690;9.022;2022-10-16T01:22:13;16.30;1.00
2623;DHT22;1321;48.690;9.022;2022-10-16T01:24:46;16.20;1.00
2623;DHT22;1321;48.690;9.022;2022-10-16T01:27:22;16.30;1.00
2623;DHT22;1321;48.690;9.022;2022-10-16T01:29:56;16.20;1.00
2623;DHT22;1321;48.690;9.022;2022-10-16T01:32:31;16.20;1.00
2623;DHT22;1321;48.690;9.022;2022-10-16T01:35:05;16.20;1.00
2623;DHT22;1321;48.690;9.022;2022-10-16T01:37:40;16.30;1.00
2623;DHT22;1321;48.690;9.022;2022-10-16T01:40:11;16.30;1.00
2623;DHT22;1321;48.690;9.022;2022-10-16T01:42:43;16.30;1.00
2623;DHT22;1321;48.690;9.022;2022-10-16T01:45:14;16.20;1.00
2623;DHT22;1321;48.690;9.022;2022-10-16T01:47:45;16.20;1.00
2623;DHT22;1321;48.690;9.022;2022-10-16T01:50:16;16.30;1.00
2623;DHT22;1321;48.690;9.022;2022-10-16T01:52:48;16.30;1.00
2623;DHT22;1321;48.690;9.022;2022-10-16T01:55:20;16.20;1.00
2623;DHT22;1321;48.690;9.022;2022-10-16T01:57:52;16.30;1.00
2623;DHT22;1321;48.690;9.022;2022-10-16T02:00:21;16.30;1.00
2623;DHT22;1321;48.690;9.022;2022-10-16T02:02:52;16.30;1.00
2623;DHT22;1321;48.690;9.022;2022-10-16T02:05:25;16.30;1.00
2623;DHT22;1321;48.690;9.022;2022-10-16T02:07:54;16.30;1.00
2623;DHT22;1321;48.690;9.022;2022-10-16T02:10:26;16.30;1.00
2623;DHT22;1321;48.690;9.022;2022-10-16T02:13:03;16.30;1.00
2623;DHT22;1321;48.690;9.022;2022-10-16T02:15:33;16.30;1.00
2623;DHT22;1321;48.690;9.022;2022-10-16T02:18:01;16.30;1.00
2623;DHT22;1321;48.690;9.022;2022-10-16T02:20:34;16.40;1.00
2623;DHT22;1321;48.690;9.022;2022-10-16T02:23:04;16.40;1.00
2623;DHT22;1321;48.690;9.022;2022-10-16T02:25:37;16.40;1.00
2623;DHT22;1321;48.690;9.022;2022-10-16T02:28:12;16.50;1.00
2623;DHT22;1321;48.690;9.022;2022-10-16T02:30:43;16.50;1.00
2623;DHT22;1321;48.690;9.022;2022-10-16T02:33:14;16.50;1.00
2623;DHT22;1321;48.690;9.022;2022-10-16T02:35:44;16.50;1.00
2623;DHT22;1321;48.690;9.022;2022-10-16T02:38:15;16.50;1.00
2623;DHT22;1321;48.690;9.022;2022-10-16T02:40:44;16.40;1.00
2623;DHT22;1321;48.690;9.022;2022-10-16T02:43:15;16.40;1.00
2623;DHT22;1321;48.690;9.022;2022-10-16T02:45:43;16.40;1.00
2623;DHT22;1321;48.690;9.022;2022-10-16T02:48:11;16.40;1.00
2623;DHT22;1321;48.690;9.022;2022-10-16T02:50:39;16.40;1.00
2623;DHT22;1321;48.690;9.022;2022-10-16T02:53:08;16.40;1.00
2623;DHT22;1321;48.690;9.022;2022-10-16T02:55:36;16.40;1.00
2623;DHT22;1321;48.690;9.022;2022-10-16T02:58:04;16.40;1.00
2623;DHT22;1321;48.690;9.022;2022-10-16T03:00:33;16.40;1.00
2623;DHT22;1321;48.690;9.022;2022-10-16T03:03:01;16.40;1.00
2623;DHT22;1321;48.690;9.022;2022-10-16T03:05:29;16.40;1.00
2623;DHT22;1321;48.690;9.022;2022-10-16T03:07:57;16.40;1.00
2623;DHT22;1321;48.690;9.022;2022-10-16T03:10:26;16.30;1.00
2623;DHT22;1321;48.690;9.022;2022-10-16T03:12:54;16.40;1.00
2623;DHT22;1321;48.690;9.022;2022-10-16T03:15:23;16.40;1.00
2623;DHT22;1321;48.690;9.022;2022-10-16T03:17:52;16.40;1.00
2623;DHT22;1321;48.690;9.022;2022-10-16T03:20:20;16.40;1.00
2623;DHT22;1321;48.690;9.022;2022-10-16T03:22:48;16.40;1.00
2623;DHT22;1321;48.690;9.022;2022-10-16T03:25:16;16.40;1.00
2623;DHT22;1321;48.690;9.022;2022-10-16T03:27:44;16.40;1.00
2623;DHT22;1321;48.690;9.022;2022-10-16T03:30:12;16.30;1.00
2623;DHT22;1321;48.690;9.022;2022-10-16T03:32:40;16.30;1.00
2623;DHT22;1321;48.690;9.022;2022-10-16T03:35:10;16.30;1.00
2623;DHT22;1321;48.690;9.022;2022-10-16T03:37:38;16.20;1.00
2623;DHT22;1321;48.690;9.022;2022-10-16T03:40:07;16.20;1.00
2623;DHT22;1321;48.690;9.022;2022-10-16T03:42:35;16.20;1.00
2623;DHT22;1321;48.690;9.022;2022-10-16T03:45:04;16.10;1.00
2623;DHT22;1321;48.690;9.022;2022-10-16T03:47:32;16.10;1.00
2623;DHT22;1321;48.690;9.022;2022-10-16T03:50:00;16.10;1.00
2623;DHT22;1321;48.690;9.022;2022-10-16T03:52:30;16.00;1.00
2623;DHT22;1321;48.690;9.022;2022-10-16T03:54:59;16.00;1.00
2623;DHT22;1321;48.690;9.022;2022-10-16T03:57:27;16.00;1.00
2623;DHT22;1321;48.690;9.022;2022-10-16T03:59:55;16.00;1.00
2623;DHT22;1321;48.690;9.022;2022-10-16T04:02:23;16.00;1.00
2623;DHT22;1321;48.690;9.022;2022-10-16T04:04:52;16.00;1.00
2623;DHT22;1321;48.690;9.022;2022-10-16T04:07:20;16.00;1.00
2623;DHT22;1321;48.690;9.022;2022-10-16T04:09:49;16.00;1.00
2623;DHT22;1321;48.690;9.022;2022-10-16T04:12:18;16.00;1.00
2623;DHT22;1321;48.690;9.022;2022-10-16T04:14:46;15.90;1.00
2623;DHT22;1321;48.690;9.022;2022-10-16T04:17:14;15.90;1.00
2623;DHT22;1321;48.690;9.022;2022-10-16T04:19:43;15.90;1.00
2623;DHT22;1321;48.690;9.022;2022-10-16T04:22:11;15.90;1.00
2623;DHT22;1321;48.690;9.022;2022-10-16T04:24:39;15.90;1.00
2623;DHT22;1321;48.690;9.022;2022-10-16T04:27:09;15.90;1.00
2623;DHT22;1321;48.690;9.022;2022-10-16T04:29:37;15.90;1.00
2623;DHT22;1321;48.690;9.022;2022-10-16T04:32:05;15.90;1.00
2623;DHT22;1321;48.690;9.022;2022-10-16T04:34:33;15.90;1.00
2623;DHT22;1321;48.690;9.022;2022-10-16T04:37:01;15.90;1.00
2623;DHT22;1321;48.690;9.022;2022-10-16T04:39:29;16.00;1.00
2623;DHT22;1321;48.690;9.022;2022-10-16T04:41:57;16.00;1.00
2623;DHT22;1321;48.690;9.022;2022-10-16T04:44:26;15.90;1.00
2623;DHT22;1321;48.690;9.022;2022-10-16T04:46:54;15.80;1.00
2623;DHT22;1321;48.690;9.022;2022-10-16T04:49:22;15.90;1.00
2623;DHT22;1321;48.690;9.022;2022-10-16T04:51:50;15.80;1.00
2623;DHT22;1321;48.690;9.022;2022-10-16T04:54:19;15.80;1.00
2623;DHT22;1321;48.690;9.022;2022-10-16T04:56:47;15.80;1.00
2623;DHT22;1321;48.690;9.022;2022-10-16T04:59:17;15.80;1.00
2623;DHT22;1321;48.690;9.022;2022-10-16T05:01:46;15.80;1.50
2623;DHT22;1321;48.690;9.022;2022-10-16T05:04:14;15.80;4.50
2623;DHT22;1321;48.690;9.022;2022-10-16T05:06:43;15.70;7.10
2623;DHT22;1321;48.690;9.022;2022-10-16T05:09:11;15.70;1.00
2623;DHT22;1321;48.690;9.022;2022-10-16T05:11:39;15.80;1.00
2623;DHT22;1321;48.690;9.022;2022-10-16T05:14:07;15.70;1.00
2623;DHT22;1321;48.690;9.022;2022-10-16T05:16:35;15.80;1.00
2623;DHT22;1321;48.690;9.022;2022-10-16T05:19:04;15.80;1.00
2623;DHT22;1321;48.690;9.022;2022-10-16T05:21:52;15.80;1.00
2623;DHT22;1321;48.690;9.022;2022-10-16T05:24:20;15.80;1.00
2623;DHT22;1321;48.690;9.022;2022-10-16T05:26:49;15.80;1.00
2623;DHT22;1321;48.690;9.022;2022-10-16T05:29:17;15.70;1.00
2623;DHT22;1321;48.690;9.022;2022-10-16T05:31:45;15.70;1.00
2623;DHT22;1321;48.690;9.022;2022-10-16T05:34:14;15.70;1.00
2623;DHT22;1321;48.690;9.022;2022-10-16T05:36:42;15.80;1.00
2623;DHT22;1321;48.690;9.022;2022-10-16T05:39:12;16.00;1.00
2623;DHT22;1321;48.690;9.022;2022-10-16T05:41:41;16.00;1.00
2623;DHT22;1321;48.690;9.022;2022-10-16T05:44:09;16.00;1.00
2623;DHT22;1321;48.690;9.022;2022-10-16T05:46:37;16.00;1.00
2623;DHT22;1321;48.690;9.022;2022-10-16T05:49:05;16.00;1.00
2623;DHT22;1321;48.690;9.022;2022-10-16T05:51:35;16.10;1.00
2623;DHT22;1321;48.690;9.022;2022-10-16T05:54:03;16.10;1.00
2623;DHT22;1321;48.690;9.022;2022-10-16T05:56:31;16.20;1.00
2623;DHT22;1321;48.690;9.022;2022-10-16T05:58:59;16.20;1.00
2623;DHT22;1321;48.690;9.022;2022-10-16T06:01:27;16.10;1.00
2623;DHT22;1321;48.690;9.022;2022-10-16T06:03:55;16.20;1.00
2623;DHT22;1321;48.690;9.022;2022-10-16T06:06:24;16.20;1.00
2623;DHT22;1321;48.690;9.022;2022-10-16T06:08:55;16.20;1.00
2623;DHT22;1321;48.690;9.022;2022-10-16T06:11:26;16.30;1.00
2623;DHT22;1321;48.690;9.022;2022-10-16T06:13:56;16.30;1.00
2623;DHT22;1321;48.690;9.022;2022-10-16T06:16:25;16.30;1.00
2623;DHT22;1321;48.690;9.022;2022-10-16T06:18:54;16.30;1.00
2623;DHT22;1321;48.690;9.022;2022-10-16T06:21:24;16.30;1.00
2623;DHT22;1321;48.690;9.022;2022-10-16T06:23:54;16.30;1.00
2623;DHT22;1321;48.690;9.022;2022-10-16T06:26:24;16.20;1.00
2623;DHT22;1321;48.690;9.022;2022-10-16T06:28:54;16.30;1.00
2623;DHT22;1321;48.690;9.022;2022-10-16T06:31:23;16.20;1.00
2623;DHT22;1321;48.690;9.022;2022-10-16T06:33:54;16.20;1.00
2623;DHT22;1321;48.690;9.022;2022-10-16T06:36:24;16.20;1.00
2623;DHT22;1321;48.690;9.022;2022-10-16T06:38:54;16.30;1.00
2623;DHT22;1321;48.690;9.022;2022-10-16T06:41:23;16.40;1.00
2623;DHT22;1321;48.690;9.022;2022-10-16T06:43:51;16.50;1.00
2623;DHT22;1321;48.690;9.022;2022-10-16T06:46:21;16.50;1.00
2623;DHT22;1321;48.690;9.022;2022-10-16T06:48:50;16.50;1.00
2623;DHT22;1321;48.690;9.022;2022-10-16T06:51:20;16.50;1.00
2623;DHT22;1321;48.690;9.022;2022-10-16T06:53:49;16.50;1.00
2623;DHT22;1321;48.690;9.022;2022-10-16T06:56:35;16.60;1.00
2623;DHT22;1321;48.690;9.022;2022-10-16T06:59:03;16.60;1.00
2623;DHT22;1321;48.690;9.022;2022-10-16T07:01:32;16.60;1.00
2623;DHT22;1321;48.690;9.022;2022-10-16T07:04:00;16.60;1.00
2623;DHT22;1321;48.690;9.022;2022-10-16T07:06:31;16.70;1.00
2623;DHT22;1321;48.690;9.022;2022-10-16T07:09:02;16.70;1.00
2623;DHT22;1321;48.690;9.022;2022-10-16T07:11:30;16.70;1.00
2623;DHT22;1321;48.690;9.022;2022-10-16T07:14:00;16.70;1.00
2623;DHT22;1321;48.690;9.022;2022-10-16T07:16:29;16.70;1.00
2623;DHT22;1321;48.690;9.022;2022-10-16T07:18:59;16.60;1.00
2623;DHT22;1321;48.690;9.022;2022-10-16T07:21:29;16.70;1.00
2623;DHT22;1321;48.690;9.022;2022-10-16T07:23:59;16.70;1.00
2623;DHT22;1321;48.690;9.022;2022-10-16T07:26:30;16.70;1.00
2623;DHT22;1321;48.690;9.022;2022-10-16T07:28:59;16.70;1.00
2623;DHT22;1321;48.690;9.022;2022-10-16T07:31:28;16.60;1.00
2623;DHT22;1321;48.690;9.022;2022-10-16T07:33:57;16.60;1.00
2623;DHT22;1321;48.690;9.022;2022-10-16T07:36:26;16.70;1.00
2623;DHT22;1321;48.690;9.022;2022-10-16T07:38:54;16.70;1.00
2623;DHT22;1321;48.690;9.022;2022-10-16T07:41:26;16.70;1.00
2623;DHT22;1321;48.690;9.022;2022-10-16T07:43:54;16.60;1.00
2623;DHT22;1321;48.690;9.022;2022-10-16T07:46:25;16.70;1.00
2623;DHT22;1321;48.690;9.022;2022-10-16T07:48:54;16.70;1.00
2623;DHT22;1321;48.690;9.022;2022-10-16T07:51:23;16.60;1.00
2623;DHT22;1321;48.690;9.022;2022-10-16T07:53:52;16.60;1.00
2623;DHT22;1321;48.690;9.022;2022-10-16T07:56:21;16.70;1.00
2623;DHT22;1321;48.690;9.022;2022-10-16T07:58:50;16.60;1.00
2623;DHT22;1321;48.690;9.022;2022-10-16T08:01:19;16.60;1.00
2623;DHT22;1321;48.690;9.022;2022-10-16T08:03:49;16.60;1.00
2623;DHT22;1321;48.690;9.022;2022-10-16T08:06:19;16.60;1.00
2623;DHT22;1321;48.690;9.022;2022-10-16T08:08:54;16.60;1.00
2623;DHT22;1321;48.690;9.022;2022-10-16T08:11:22;16.80;1.00
2623;DHT22;1321;48.690;9.022;2022-10-16T08:13:51;16.80;1.00
2623;DHT22;1321;48.690;9.022;2022-10-16T08:16:19;16.90;1.00
2623;DHT22;1321;48.690;9.022;2022-10-16T08:18:49;16.90;1.00
2623;DHT22;1321;48.690;9.022;2022-10-16T08:21:20;17.00;1.00
2623;DHT22;1321;48.690;9.022;2022-10-16T08:23:49;17.10;99.90
2623;DHT22;1321;48.690;9.022;2022-10-16T08:26:24;17.30;99.90
2623;DHT22;1321;48.690;9.022;2022-10-16T08:28:53;17.40;99.90
2623;DHT22;1321;48.690;9.022;2022-10-16T08:31:21;17.30;99.90
2623;DHT22;1321;48.690;9.022;2022-10-16T08:33:51;17.40;99.90
2623;DHT22;1321;48.690;9.022;2022-10-16T08:36:19;17.40;99.90
2623;DHT22;1321;48.690;9.022;2022-10-16T08:38:48;17.30;99.90
2623;DHT22;1321;48.690;9.022;2022-10-16T08:41:40;17.30;99.90
2623;DHT22;1321;48.690;9.022;2022-10-16T08:44:34;17.40;99.90
2623;DHT22;1321;48.690;9.022;2022-10-16T08:47:13;17.30;99.90
2623;DHT22;1321;48.690;9.022;2022-10-16T08:49:55;17.30;99.90
2623;DHT22;1321;48.690;9.022;2022-10-16T08:52:28;17.30;99.90
2623;DHT22;1321;48.690;9.022;2022-10-16T08:54:57;17.30;99.90
2623;DHT22;1321;48.690;9.022;2022-10-16T08:57:26;17.30;99.90
2623;DHT22;1321;48.690;9.022;2022-10-16T08:59:57;17.40;99.90
2623;DHT22;1321;48.690;9.022;2022-10-16T09:02:32;17.50;99.90
2623;DHT22;1321;48.690;9.022;2022-10-16T09:05:22;17.50;99.90
2623;DHT22;1321;48.690;9.022;2022-10-16T09:08:01;17.80;99.90
2623;DHT22;1321;48.690;9.022;2022-10-16T09:10:41;18.70;49.90
2623;DHT22;1321;48.690;9.022;2022-10-16T09:13:17;19.30;99.90
2623;DHT22;1321;48.690;9.022;2022-10-16T09:15:53;20.40;1.00
2623;DHT22;1321;48.690;9.022;2022-10-16T09:18:29;21.40;1.00
2623;DHT22;1321;48.690;9.022;2022-10-16T09:21:08;23.80;1.00
2623;DHT22;1321;48.690;9.022;2022-10-16T09:23:37;25.60;99.90
2623;DHT22;1321;48.690;9.022;2022-10-16T09:26:09;26.70;99.90
2623;DHT22;1321;48.690;9.022;2022-10-16T09:28:39;27.00;99.90
2623;DHT22;1321;48.690;9.022;2022-10-16T09:31:13;26.90;99.90
2623;DHT22;1321;48.690;9.022;2022-10-16T09:33:45;26.10;99.90
2623;DHT22;1321;48.690;9.022;2022-10-16T09:36:17;25.00;99.90
2623;DHT22;1321;48.690;9.022;2022-10-16T09:38:45;23.50;99.90
2623;DHT22;1321;48.690;9.022;2022-10-16T09:41:19;22.70;1.00
2623;DHT22;1321;48.690;9.022;2022-10-16T09:43:51;22.00;1.00
2623;DHT22;1321;48.690;9.022;2022-10-16T09:46:26;21.90;1.00
2623;DHT22;1321;48.690;9.022;2022-10-16T09:48:56;21.90;1.00
2623;DHT22;1321;48.690;9.022;2022-10-16T09:51:27;22.30;1.00
2623;DHT22;1321;48.690;9.022;2022-10-16T09:53:58;22.40;1.00
2623;DHT22;1321;48.690;9.022;2022-10-16T09:56:29;22.60;1.00
2623;DHT22;1321;48.690;9.022;2022-10-16T09:59:00;23.40;1.00
2623;DHT22;1321;48.690;9.022;2022-10-16T10:01:31;23.00;1.00
2623;DHT22;1321;48.690;9.022;2022-10-16T10:04:04;23.60;1.00
2623;DHT22;1321;48.690;9.022;2022-10-16T10:06:36;25.40;99.90
2623;DHT22;1321;48.690;9.022;2022-10-16T10:09:15;27.20;99.90
2623;DHT22;1321;48.690;9.022;2022-10-16T10:11:52;30.20;99.90
2623;DHT22;1321;48.690;9.022;2022-10-16T10:14:34;32.50;99.90
2623;DHT22;1321;48.690;9.022;2022-10-16T10:17:24;32.00;99.90
2623;DHT22;1321;48.690;9.022;2022-10-16T10:19:54;29.50;99.90
2623;DHT22;1321;48.690;9.022;2022-10-16T10:22:27;27.00;99.90
2623;DHT22;1321;48.690;9.022;2022-10-16T10:25:04;25.60;99.90
2623;DHT22;1321;48.690;9.022;2022-10-16T10:27:44;24.40;99.90
2623;DHT22;1321;48.690;9.022;2022-10-16T10:30:19;23.80;99.90
2623;DHT22;1321;48.690;9.022;2022-10-16T10:33:00;23.50;99.90
2623;DHT22;1321;48.690;9.022;2022-10-16T10:35:42;23.30;99.90
2623;DHT22;1321;48.690;9.022;2022-10-16T10:38:25;23.20;99.90
2623;DHT22;1321;48.690;9.022;2022-10-16T10:41:02;23.10;99.90
2623;DHT22;1321;48.690;9.022;2022-10-16T10:43:43;23.10;99.90
2623;DHT22;1321;48.690;9.022;2022-10-16T10:46:18;24.30;99.90
2623;DHT22;1321;48.690;9.022;2022-10-16T10:49:04;27.10;99.90
2623;DHT22;1321;48.690;9.022;2022-10-16T10:51:43;27.20;99.90
2623;DHT22;1321;48.690;9.022;2022-10-16T10:54:20;26.20;99.90
2623;DHT22;1321;48.690;9.022;2022-10-16T10:56:57;25.40;99.90
2623;DHT22;1321;48.690;9.022;2022-10-16T10:59:41;29.60;99.90
2623;DHT22;1321;48.690;9.022;2022-10-16T11:02:19;30.60;99.90
2623;DHT22;1321;48.690;9.022;2022-10-16T11:05:04;30.00;99.90
2623;DHT22;1321;48.690;9.022;2022-10-16T11:07:38;28.80;99.90
2623;DHT22;1321;48.690;9.022;2022-10-16T11:10:14;27.00;99.90
2623;DHT22;1321;48.690;9.022;2022-10-16T11:12:45;26.10;99.90
2623;DHT22;1321;48.690;9.022;2022-10-16T11:15:18;25.20;99.90
2623;DHT22;1321;48.690;9.022;2022-10-16T11:17:50;24.80;99.90
2623;DHT22;1321;48.690;9.022;2022-10-16T11:20:23;24.20;99.90
2623;DHT22;1321;48.690;9.022;2022-10-16T11:22:56;23.90;99.90
2623;DHT22;1321;48.690;9.022;2022-10-16T11:25:28;23.80;99.90
2623;DHT22;1321;48.690;9.022;2022-10-16T11:28:01;23.70;99.90
2623;DHT22;1321;48.690;9.022;2022-10-16T11:30:39;23.60;99.90
2623;DHT22;1321;48.690;9.022;2022-10-16T11:33:25;23.50;99.90
2623;DHT22;1321;48.690;9.022;2022-10-16T11:36:02;23.40;99.90
2623;DHT22;1321;48.690;9.022;2022-10-16T11:38:37;23.50;99.90
2623;DHT22;1321;48.690;9.022;2022-10-16T11:41:18;23.40;99.90
2623;DHT22;1321;48.690;9.022;2022-10-16T11:43:56;23.30;99.90
2623;DHT22;1321;48.690;9.022;2022-10-16T11:46:30;23.40;99.90
2623;DHT22;1321;48.690;9.022;2022-10-16T11:49:06;23.30;99.90
2623;DHT22;1321;48.690;9.022;2022-10-16T11:51:39;23.30;99.90
2623;DHT22;1321;48.690;9.022;2022-10-16T11:54:17;23.40;99.90
2623;DHT22;1321;48.690;9.022;2022-10-16T11:56:53;23.50;99.90
2623;DHT22;1321;48.690;9.022;2022-10-16T11:59:28;23.60;99.90
2623;DHT22;1321;48.690;9.022;2022-10-16T12:02:11;23.60;99.90
2623;DHT22;1321;48.690;9.022;2022-10-16T12:04:49;23.60;99.90
2623;DHT22;1321;48.690;9.022;2022-10-16T12:07:21;23.50;99.90
2623;DHT22;1321;48.690;9.022;2022-10-16T12:09:51;23.30;99.90
2623;DHT22;1321;48.690;9.022;2022-10-16T12:12:37;23.30;99.90
2623;DHT22;1321;48.690;9.022;2022-10-16T12:15:20;23.40;99.90
2623;DHT22;1321;48.690;9.022;2022-10-16T12:18:21;23.40;99.90
2623;DHT22;1321;48.690;9.022;2022-10-16T12:20:55;23.40;99.90
2623;DHT22;1321;48.690;9.022;2022-10-16T12:23:25;23.30;99.90
2623;DHT22;1321;48.690;9.022;2022-10-16T12:25:55;23.30;99.90
2623;DHT22;1321;48.690;9.022;2022-10-16T12:28:28;23.30;99.90
2623;DHT22;1321;48.690;9.022;2022-10-16T12:30:58;23.40;99.90
2623;DHT22;1321;48.690;9.022;2022-10-16T12:33:28;23.50;99.90
2623;DHT22;1321;48.690;9.022;2022-10-16T12:35:59;23.60;99.90
2623;DHT22;1321;48.690;9.022;2022-10-16T12:38:32;23.60;99.90
2623;DHT22;1321;48.690;9.022;2022-10-16T12:41:05;23.60;99.90
2623;DHT22;1321;48.690;9.022;2022-10-16T12:43:39;23.50;99.90
2623;DHT22;1321;48.690;9.022;2022-10-16T12:46:24;23.40;99.90
2623;DHT22;1321;48.690;9.022;2022-10-16T12:49:32;23.30;99.90
2623;DHT22;1321;48.690;9.022;2022-10-16T12:52:04;23.20;99.90
2623;DHT22;1321;48.690;9.022;2022-10-16T12:54:36;23.10;99.90
2623;DHT22;1321;48.690;9.022;2022-10-16T12:57:21;23.00;99.90
2623;DHT22;1321;48.690;9.022;2022-10-16T12:59:59;23.00;99.90
2623;DHT22;1321;48.690;9.022;2022-10-16T13:02:56;22.90;99.90
2623;DHT22;1321;48.690;9.022;2022-10-16T13:05:35;22.90;99.90
2623;DHT22;1321;48.690;9.022;2022-10-16T13:08:25;22.90;99.90
2623;DHT22;1321;48.690;9.022;2022-10-16T13:11:03;22.90;99.90
2623;DHT22;1321;48.690;9.022;2022-10-16T13:13:53;23.00;99.90
2623;DHT22;1321;48.690;9.022;2022-10-16T13:16:30;22.90;99.90
2623;DHT22;1321;48.690;9.022;2022-10-16T13:19:10;22.90;99.90
2623;DHT22;1321;48.690;9.022;2022-10-16T13:21:44;22.90;99.90
2623;DHT22;1321;48.690;9.022;2022-10-16T13:24:39;22.90;99.90
2623;DHT22;1321;48.690;9.022;2022-10-16T13:27:20;22.90;1.00
2623;DHT22;1321;48.690;9.022;2022-10-16T13:29:54;22.90;1.00
2623;DHT22;1321;48.690;9.022;2022-10-16T13:32:29;23.00;1.00
2623;DHT22;1321;48.690;9.022;2022-10-16T13:34:58;23.00;1.00
2623;DHT22;1321;48.690;9.022;2022-10-16T13:37:27;23.00;1.00
2623;DHT22;1321;48.690;9.022;2022-10-16T13:40:11;23.00;99.90
2623;DHT22;1321;48.690;9.022;2022-10-16T13:42:45;23.00;1.00
2623;DHT22;1321;48.690;9.022;2022-10-16T13:45:20;23.00;99.90
2623;DHT22;1321;48.690;9.022;2022-10-16T13:47:49;22.90;1.00
2623;DHT22;1321;48.690;9.022;2022-10-16T13:50:18;22.90;99.90
2623;DHT22;1321;48.690;9.022;2022-10-16T13:52:46;22.80;99.90
2623;DHT22;1321;48.690;9.022;2022-10-16T13:55:17;22.80;99.90
2623;DHT22;1321;48.690;9.022;2022-10-16T13:57:46;22.80;99.90
2623;DHT22;1321;48.690;9.022;2022-10-16T14:00:19;22.70;99.90
2623;DHT22;1321;48.690;9.022;2022-10-16T14:02:53;22.70;99.90
2623;DHT22;1321;48.690;9.022;2022-10-16T14:05:23;22.70;99.90
2623;DHT22;1321;48.690;9.022;2022-10-16T14:07:51;22.60;1.00
2623;DHT22;1321;48.690;9.022;2022-10-16T14:10:24;22.50;1.00
2623;DHT22;1321;48.690;9.022;2022-10-16T14:12:57;22.50;1.00
2623;DHT22;1321;48.690;9.022;2022-10-16T14:15:26;22.50;1.00
2623;DHT22;1321;48.690;9.022;2022-10-16T14:17:56;22.50;1.00
2623;DHT22;1321;48.690;9.022;2022-10-16T14:20:27;22.50;1.00
2623;DHT22;1321;48.690;9.022;2022-10-16T14:23:00;22.50;1.00
2623;DHT22;1321;48.690;9.022;2022-10-16T14:25:31;22.40;1.00
2623;DHT22;1321;48.690;9.022;2022-10-16T14:28:02;22.50;1.00
2623;DHT22;1321;48.690;9.022;2022-10-16T14:30:32;22.50;1.00
2623;DHT22;1321;48.690;9.022;2022-10-16T14:33:04;22.50;1.00
2623;DHT22;1321;48.690;9.022;2022-10-16T14:35:35;22.40;1.00
2623;DHT22;1321;48.690;9.022;2022-10-16T14:38:05;22.30;1.00
2623;DHT22;1321;48.690;9.022;2022-10-16T14:40:35;22.40;1.00
2623;DHT22;1321;48.690;9.022;2022-10-16T14:43:04;22.40;1.00
2623;DHT22;1321;48.690;9.022;2022-10-16T14:45:34;22.40;1.00
2623;DHT22;1321;48.690;9.022;2022-10-16T14:48:06;22.50;1.00
2623;DHT22;1321;48.690;9.022;2022-10-16T14:50:45;22.40;1.00
2623;DHT22;1321;48.690;9.022;2022-10-16T14:53:14;22.40;1.00
2623;DHT22;1321;48.690;9.022;2022-10-16T14:55:42;22.40;1.00
2623;DHT22;1321;48.690;9.022;2022-10-16T14:58:15;22.40;1.00
2623;DHT22;1321;48.690;9.022;2022-10-16T15:00:44;22.40;1.00
2623;DHT22;1321;48.690;9.022;2022-10-16T15:03:13;22.40;1.00
2623;DHT22;1321;48.690;9.022;2022-10-16T15:05:42;22.40;1.00
2623;DHT22;1321;48.690;9.022;2022-10-16T15:08:10;22.40;1.00
2623;DHT22;1321;48.690;9.022;2022-10-16T15:10:43;22.30;1.00
2623;DHT22;1321;48.690;9.022;2022-10-16T15:13:14;22.30;1.00
2623;DHT22;1321;48.690;9.022;2022-10-16T15:15:43;22.30;1.00
2623;DHT22;1321;48.690;9.022;2022-10-16T15:18:13;22.20;1.00
2623;DHT22;1321;48.690;9.022;2022-10-16T15:20:49;22.30;1.00
2623;DHT22;1321;48.690;9.022;2022-10-16T15:23:18;22.30;1.00
2623;DHT22;1321;48.690;9.022;2022-10-16T15:25:48;22.30;1.00
2623;DHT22;1321;48.690;9.022;2022-10-16T15:28:17;22.30;1.00
2623;DHT22;1321;48.690;9.022;2022-10-16T15:30:46;22.20;1.00
2623;DHT22;1321;48.690;9.022;2022-10-16T15:33:19;22.20;1.00
2623;DHT22;1321;48.690;9.022;2022-10-16T15:35:48;22.10;1.00
2623;DHT22;1321;48.690;9.022;2022-10-16T15:38:18;22.10;1.00
2623;DHT22;1321;48.690;9.022;2022-10-16T15:40:47;22.00;1.00
2623;DHT22;1321;48.690;9.022;2022-10-16T15:43:16;22.00;1.00
2623;DHT22;1321;48.690;9.022;2022-10-16T15:45:44;21.90;1.00
2623;DHT22;1321;48.690;9.022;2022-10-16T15:48:13;21.80;1.00
2623;DHT22;1321;48.690;9.022;2022-10-16T15:50:42;21.80;1.00
2623;DHT22;1321;48.690;9.022;2022-10-16T15:53:10;21.80;54.00
2623;DHT22;1321;48.690;9.022;2022-10-16T15:55:38;21.70;1.00
2623;DHT22;1321;48.690;9.022;2022-10-16T15:58:07;21.70;1.00
2623;DHT22;1321;48.690;9.022;2022-10-16T16:00:35;21.60;1.00
2623;DHT22;1321;48.690;9.022;2022-10-16T16:03:03;21.60;1.00
2623;DHT22;1321;48.690;9.022;2022-10-16T16:05:36;21.50;1.00
2623;DHT22;1321;48.690;9.022;2022-10-16T16:08:12;21.40;1.00
2623;DHT22;1321;48.690;9.022;2022-10-16T16:10:40;21.40;1.00
2623;DHT22;1321;48.690;9.022;2022-10-16T16:13:09;21.40;1.00
2623;DHT22;1321;48.690;9.022;2022-10-16T16:15:38;21.30;1.00
2623;DHT22;1321;48.690;9.022;2022-10-16T16:18:06;21.30;1.00
2623;DHT22;1321;48.690;9.022;2022-10-16T16:20:36;21.30;1.00
2623;DHT22;1321;48.690;9.022;2022-10-16T16:23:04;21.30;1.00
2623;DHT22;1321;48.690;9.022;2022-10-16T16:25:34;21.20;1.00
2623;DHT22;1321;48.690;9.022;2022-10-16T16:28:02;21.10;99.90
2623;DHT22;1321;48.690;9.022;2022-10-16T16:30:30;21.00;1.00
2623;DHT22;1321;48.690;9.022;2022-10-16T16:32:58;21.00;31.50
2623;DHT22;1321;48.690;9.022;2022-10-16T16:35:26;21.00;63.00
2623;DHT22;1321;48.690;9.022;2022-10-16T16:37:54;20.90;99.90
2623;DHT22;1321;48.690;9.022;2022-10-16T16:40:22;20.80;99.90
2623;DHT22;1321;48.690;9.022;2022-10-16T16:42:52;20.80;99.90